Time;durP1;ratioP1;P1;durP2;ratioP2;P2;SDS_P1;SDS_P2;PMS_P1;PMS_P2;Temp;Humidity;BMP_temperature;BMP_pressure;BME280_temperature;BME280_humidity;BME280_pressure;Samples;Min_cycle;Max_cycle;Signal;HPM_P1;HPM_P2
2022/12/02 00:05:11;;;;;;;;;;;;;;;9.09;74.80;101909.44;5094406;28;19923;-90
2022/12/02 00:10:41;;;;;;;;;;;;;;;9.17;74.73;101926.59;5075611;28;21157;-90
2022/12/02 00:16:30;;;;;;;;;;;;;;;9.08;74.82;101925.88;5104145;28;19973;-91
2022/12/02 00:18:56;;;;;;;;;;;;;;;9.13;74.83;101932.34;5065021;28;19920;-91
2022/12/02 00:21:26;;;;;;;;;;;;;;;9.15;74.59;101940.31;5079781;28;20383;-89
2022/12/02 00:27:17;;;;;;;;;;;;;;;9.24;74.51;101953.13;5104958;28;20018;-90
2022/12/02 00:33:00;;;;;;;;;;;;;;;9.13;74.75;101934.06;5112216;28;19965;-90
2022/12/02 00:38:39;;;;;;;;;;;;;;;9.13;74.63;101947.09;5101143;28;19923;-91
2022/12/02 00:41:11;;;;;;;;;;;;;;;9.11;74.58;101930.41;5068762;28;19980;-90
2022/12/02 00:52:33;;;;;;;;;;;;;;;9.02;74.82;101935.81;5114262;28;19923;-91
2022/12/02 00:55:00;;;;;;;;;;;;;;;9.07;74.77;101946.59;5077207;28;19912;-90
2022/12/02 01:01:03;;;;;;;;;;;;;;;9.08;74.53;101940.59;5109611;28;19922;-89
2022/12/02 01:03:50;;;;;;;;;;;;;;;9.07;74.69;101946.59;5094735;28;19919;-90
2022/12/02 01:06:28;;;;;;;;;;;;;;;9.04;74.82;101938.53;5093904;28;20380;-91
2022/12/02 01:09:01;;;;;;;;;;;;;;;9.00;74.83;101945.22;5082187;28;20380;-91
2022/12/02 01:11:33;;;;;;;;;;;;;;;9.08;74.67;101935.38;5077993;28;19912;-91
2022/12/02 01:20:17;;;;;;;;;;;;;;;9.08;74.77;101941.53;5073282;28;20084;-89
2022/12/02 01:22:46;;;;;;;;;;;;;;;9.09;74.69;101945.03;5071352;28;20425;-90
2022/12/02 01:25:36;;;;;;;;;;;;;;;9.01;75.01;101925.28;5056964;28;19999;-90
2022/12/02 01:31:13;;;;;;;;;;;;;;;9.06;74.51;101930.06;5091632;28;20427;-90
2022/12/02 01:33:45;;;;;;;;;;;;;;;9.08;74.62;101933.69;5074946;28;19912;-91
2022/12/02 01:36:28;;;;;;;;;;;;;;;9.03;74.96;101926.31;5052616;28;19996;-90
2022/12/02 01:42:33;;;;;;;;;;;;;;;9.03;74.62;101935.00;5081310;28;19923;-90
2022/12/02 01:48:08;;;;;;;;;;;;;;;9.00;74.70;101923.47;5089830;28;19922;-90
2022/12/02 01:50:54;;;;;;;;;;;;;;;8.98;74.95;101918.13;5057430;28;19956;-90
2022/12/02 01:56:36;;;;;;;;;;;;;;;8.99;74.99;101934.66;5090221;28;19919;-90
2022/12/02 01:59:05;;;;;;;;;;;;;;;8.92;74.94;101936.78;5056463;28;19919;-90
2022/12/02 02:01:31;;;;;;;;;;;;;;;8.99;75.01;101942.47;5051346;28;19999;-91
2022/12/02 02:10:06;;;;;;;;;;;;;;;9.06;74.59;101947.38;5090496;28;20000;-90
2022/12/02 02:12:35;;;;;;;;;;;;;;;9.03;74.46;101929.81;5052480;28;19999;-90
2022/12/02 02:15:26;;;;;;;;;;;;;;;9.05;74.69;101917.81;5036296;28;19920;-90
2022/12/02 02:21:06;;;;;;;;;;;;;;;8.94;74.70;101914.38;5108911;28;19933;-90
2022/12/02 02:23:39;;;;;;;;;;;;;;;8.96;74.52;101923.22;5092852;28;20278;-90
2022/12/02 02:26:05;;;;;;;;;;;;;;;9.00;74.73;101931.28;5073265;28;19915;-90
2022/12/02 02:29:02;;;;;;;;;;;;;;;8.92;74.88;101926.34;5069779;28;20274;-91
2022/12/02 02:31:40;;;;;;;;;;;;;;;8.98;74.97;101906.81;5074188;28;19916;-90
2022/12/02 02:34:14;;;;;;;;;;;;;;;8.91;75.13;101908.00;5062304;28;19915;-90
2022/12/02 02:37:15;;;;;;;;;;;;;;;8.92;75.15;101912.44;5080475;28;19912;-90
2022/12/02 02:39:44;;;;;;;;;;;;;;;8.94;74.64;101918.69;5087002;28;19919;-91
2022/12/02 02:42:40;;;;;;;;;;;;;;;8.93;75.08;101920.38;5113031;28;20044;-91
2022/12/02 02:48:15;;;;;;;;;;;;;;;8.96;74.56;101918.00;5106448;28;19965;-90
2022/12/02 02:51:07;;;;;;;;;;;;;;;8.89;74.85;101913.09;5075559;28;19935;-90
2022/12/02 02:53:36;;;;;;;;;;;;;;;8.89;75.28;101912.16;5090473;28;19911;-91
2022/12/02 02:56:01;;;;;;;;;;;;;;;8.90;74.77;101916.63;5073820;28;20305;-90
2022/12/02 02:58:27;;;;;;;;;;;;;;;9.01;74.64;101922.66;5071919;28;20447;-90
2022/12/02 03:07:26;;;;;;;;;;;;;;;8.92;74.85;101925.47;5105314;28;20060;-90
2022/12/02 03:09:54;;;;;;;;;;;;;;;8.98;74.44;101927.66;5097484;28;20534;-90
2022/12/02 03:15:47;;;;;;;;;;;;;;;8.88;75.01;101923.41;5095555;28;19942;-90
2022/12/02 03:28:06;;;;;;;;;;;;;;;9.02;74.64;101940.13;5121782;28;19984;-89
2022/12/02 03:30:40;;;;;;;;;;;;;;;8.94;74.38;101947.31;5072653;28;20301;-90
2022/12/02 03:33:06;;;;;;;;;;;;;;;8.90;74.80;101955.69;5076586;28;20006;-90
2022/12/02 03:35:31;;;;;;;;;;;;;;;8.87;74.65;101948.53;5080514;28;19996;-90
2022/12/02 03:38:03;;;;;;;;;;;;;;;8.87;74.81;101956.34;5080497;28;20288;-89
2022/12/02 03:40:38;;;;;;;;;;;;;;;8.88;74.70;101941.63;5062291;28;19916;-89
2022/12/02 03:43:08;;;;;;;;;;;;;;;8.87;74.68;101945.00;5090146;28;20436;-89
2022/12/02 03:48:46;;;;;;;;;;;;;;;8.84;74.92;101939.56;5113061;28;19919;-90
2022/12/02 03:54:26;;;;;;;;;;;;;;;8.87;74.90;101951.16;5101523;28;20415;-90
2022/12/02 03:57:09;;;;;;;;;;;;;;;8.86;74.62;101951.03;5076771;28;19912;-90
2022/12/02 03:59:38;;;;;;;;;;;;;;;8.85;74.78;101954.44;5078098;28;19919;-90
2022/12/02 04:02:05;;;;;;;;;;;;;;;8.87;74.52;101951.16;5087241;28;20590;-88
2022/12/02 04:04:30;;;;;;;;;;;;;;;8.82;74.84;101954.16;5069446;28;19912;-90
2022/12/02 04:06:59;;;;;;;;;;;;;;;8.83;74.92;101953.38;5072067;28;19942;-90
2022/12/02 04:09:24;;;;;;;;;;;;;;;8.85;74.78;101957.03;5075316;28;19918;-90
2022/12/02 04:11:59;;;;;;;;;;;;;;;8.86;74.61;101957.13;5059700;28;19920;-91
2022/12/02 04:14:43;;;;;;;;;;;;;;;8.82;74.75;101954.16;5077549;28;19930;-90
2022/12/02 04:17:25;;;;;;;;;;;;;;;8.88;74.47;101957.25;5069759;28;20014;-90
2022/12/02 04:20:28;;;;;;;;;;;;;;;8.88;74.48;101963.38;5068764;28;19918;-90
2022/12/02 04:26:01;;;;;;;;;;;;;;;8.81;74.76;101963.69;5087084;28;19931;-89
2022/12/02 04:28:27;;;;;;;;;;;;;;;8.82;74.83;101962.88;5050256;28;19964;-90
2022/12/02 04:30:52;;;;;;;;;;;;;;;8.82;74.96;101962.88;5057702;28;20007;-90
2022/12/02 04:33:28;;;;;;;;;;;;;;;8.81;74.67;101971.50;5053779;28;20309;-90
2022/12/02 04:35:57;;;;;;;;;;;;;;;8.83;74.92;101966.41;5064714;28;19919;-92
2022/12/02 04:38:35;;;;;;;;;;;;;;;8.80;74.70;101969.66;5055347;28;19916;-90
2022/12/02 04:41:05;;;;;;;;;;;;;;;8.82;74.84;101964.56;5065178;28;19921;-89
2022/12/02 04:43:33;;;;;;;;;;;;;;;8.82;74.91;101969.78;5061409;28;19916;-89
2022/12/02 04:45:59;;;;;;;;;;;;;;;8.80;74.66;101967.06;5057312;28;20357;-90
2022/12/02 04:48:29;;;;;;;;;;;;;;;8.77;75.01;101972.03;5061052;28;19916;-89
2022/12/02 04:50:54;;;;;;;;;;;;;;;8.82;74.79;101978.50;5093566;28;19912;-89
2022/12/02 04:53:20;;;;;;;;;;;;;;;8.81;74.61;101978.41;5062387;28;19989;-89
2022/12/02 04:55:46;;;;;;;;;;;;;;;8.79;74.85;101983.47;5043128;28;19916;-89
2022/12/02 04:58:16;;;;;;;;;;;;;;;8.80;74.45;101992.19;5075298;28;19912;-89
2022/12/02 05:00:43;;;;;;;;;;;;;;;8.79;74.86;101993.91;5061133;28;19912;-91
2022/12/02 05:03:14;;;;;;;;;;;;;;;8.75;74.64;101997.94;5051971;28;20382;-90
2022/12/02 05:05:39;;;;;;;;;;;;;;;8.75;74.84;102007.47;5058059;28;19920;-90
2022/12/02 05:08:05;;;;;;;;;;;;;;;8.77;74.82;102008.50;5054649;28;19969;-90
2022/12/02 05:10:31;;;;;;;;;;;;;;;8.82;74.65;102019.28;5050272;28;20316;-89
2022/12/02 05:12:57;;;;;;;;;;;;;;;8.82;74.60;102011.47;5062796;28;20350;-88
2022/12/02 05:15:29;;;;;;;;;;;;;;;8.83;74.70;102013.31;5069475;28;19912;-91
2022/12/02 05:17:55;;;;;;;;;;;;;;;8.75;74.63;102016.16;5075327;28;19968;-91
2022/12/02 05:20:24;;;;;;;;;;;;;;;8.74;74.79;102014.38;5044489;28;20015;-91
2022/12/02 05:22:53;;;;;;;;;;;;;;;8.81;74.48;102020.06;5101204;28;20392;-90
2022/12/02 05:25:20;;;;;;;;;;;;;;;8.72;74.79;102031.56;5091853;28;19976;-91
2022/12/02 05:31:17;;;;;;;;;;;;;;;8.74;74.69;102030.00;5108256;28;19919;-91
2022/12/02 05:33:46;;;;;;;;;;;;;;;8.76;74.67;102032.69;5111306;28;19944;-91
2022/12/02 05:36:41;;;;;;;;;;;;;;;8.81;74.67;102038.31;5107600;28;20358;-91
2022/12/02 05:39:19;;;;;;;;;;;;;;;8.84;74.51;102041.16;5097399;28;19916;-91
2022/12/02 05:42:09;;;;;;;;;;;;;;;8.83;74.43;102042.84;5106796;28;19918;-91
2022/12/02 05:45:05;;;;;;;;;;;;;;;8.82;74.49;102045.31;5103215;28;20345;-90
2022/12/02 05:47:37;;;;;;;;;;;;;;;8.80;74.47;102059.91;5109474;28;20414;-90
2022/12/02 05:50:05;;;;;;;;;;;;;;;8.71;74.81;102052.25;5091981;28;19951;-89
2022/12/02 05:52:49;;;;;;;;;;;;;;;8.74;74.71;102065.53;5093855;28;19916;-89
2022/12/02 05:55:18;;;;;;;;;;;;;;;8.74;74.86;102069.06;5090637;28;19969;-87
2022/12/02 05:57:45;;;;;;;;;;;;;;;8.77;74.66;102071.91;5108456;28;19995;-85
2022/12/02 06:00:34;;;;;;;;;;;;;;;8.75;74.81;102072.56;5100568;28;19911;-91
2022/12/02 06:03:04;;;;;;;;;;;;;;;8.80;74.40;102075.53;5102492;28;19923;-90
2022/12/02 06:05:40;;;;;;;;;;;;;;;8.71;74.94;102074.00;5106667;28;20088;-90
2022/12/02 06:08:28;;;;;;;;;;;;;;;8.75;74.86;102077.78;5091901;28;20409;-90
2022/12/02 06:11:27;;;;;;;;;;;;;;;8.83;74.66;102084.53;5117379;28;19923;-89
2022/12/02 06:13:58;;;;;;;;;;;;;;;8.84;74.45;102082.81;5120475;28;19912;-90
2022/12/02 06:16:26;;;;;;;;;;;;;;;8.75;74.64;102085.59;5097079;28;19930;-89
2022/12/02 06:18:51;;;;;;;;;;;;;;;8.75;74.66;102086.50;5115266;28;19912;-90
2022/12/02 06:21:17;;;;;;;;;;;;;;;8.72;74.57;102087.91;5086919;28;20363;-89
2022/12/02 06:23:52;;;;;;;;;;;;;;;8.67;75.09;102095.38;5076974;28;20294;-91
2022/12/02 06:26:19;;;;;;;;;;;;;;;8.71;74.85;102088.72;5078365;28;20362;-89
2022/12/02 06:28:46;;;;;;;;;;;;;;;8.72;74.77;102095.75;5094387;28;20393;-89
2022/12/02 06:31:22;;;;;;;;;;;;;;;8.72;74.60;102088.88;5076462;28;19958;-90
2022/12/02 06:33:52;;;;;;;;;;;;;;;8.75;74.53;102096.00;5065099;28;19919;-90
2022/12/02 06:36:21;;;;;;;;;;;;;;;8.78;74.42;102096.25;5075327;28;19916;-90
2022/12/02 06:38:53;;;;;;;;;;;;;;;8.75;74.39;102093.41;5080250;28;20388;-88
2022/12/02 06:41:27;;;;;;;;;;;;;;;8.80;74.55;102085.97;5076345;28;20308;-90
2022/12/02 06:47:28;;;;;;;;;;;;;;;8.69;74.69;102091.19;5091761;28;19923;-89
2022/12/02 06:49:53;;;;;;;;;;;;;;;8.74;74.65;102095.09;5088286;28;19916;-87
2022/12/02 06:52:20;;;;;;;;;;;;;;;8.67;74.55;102099.66;5096241;28;19911;-88
2022/12/02 06:54:46;;;;;;;;;;;;;;;8.64;74.80;102102.03;5070670;28;19963;-88
2022/12/02 06:57:30;;;;;;;;;;;;;;;8.67;74.79;102105.78;5092546;28;20331;-89
2022/12/02 06:59:55;;;;;;;;;;;;;;;8.68;74.60;102096.31;5096127;28;20015;-87
2022/12/02 07:02:24;;;;;;;;;;;;;;;8.68;74.80;102105.00;5084766;28;20015;-87
2022/12/02 07:04:53;;;;;;;;;;;;;;;8.68;74.68;102102.41;5098043;28;19955;-85
2022/12/02 07:07:21;;;;;;;;;;;;;;;8.74;74.79;102101.97;5066000;28;19918;-89
2022/12/02 07:10:00;;;;;;;;;;;;;;;8.62;74.74;102107.09;5097324;28;19947;-86
2022/12/02 07:12:42;;;;;;;;;;;;;;;8.73;74.65;102113.19;5079999;28;19916;-89
2022/12/02 07:15:19;;;;;;;;;;;;;;;8.68;74.72;102106.72;5075647;28;20296;-88
2022/12/02 07:17:45;;;;;;;;;;;;;;;8.69;74.77;102113.72;5095579;28;20312;-87
2022/12/02 07:20:14;;;;;;;;;;;;;;;8.67;74.75;102111.00;5080287;28;19912;-89
2022/12/02 07:22:40;;;;;;;;;;;;;;;8.68;74.66;102107.63;5093254;28;19919;-87
2022/12/02 07:25:08;;;;;;;;;;;;;;;8.70;74.54;102100.84;5115159;28;19964;-87
2022/12/02 07:27:35;;;;;;;;;;;;;;;8.65;74.60;102102.13;5098965;28;19950;-87
2022/12/02 07:30:02;;;;;;;;;;;;;;;8.65;74.92;102116.84;5110545;28;19918;-87
2022/12/02 07:32:27;;;;;;;;;;;;;;;8.71;74.44;102112.16;5092453;28;20377;-88
2022/12/02 07:34:53;;;;;;;;;;;;;;;8.64;74.82;102110.75;5113604;28;19968;-88
2022/12/02 07:37:19;;;;;;;;;;;;;;;8.66;74.78;102113.50;5114680;28;20305;-87
2022/12/02 07:39:46;;;;;;;;;;;;;;;8.68;74.71;102118.03;5099863;28;19951;-87
2022/12/02 07:42:13;;;;;;;;;;;;;;;8.66;74.85;102113.50;5099873;28;19943;-87
2022/12/02 07:44:39;;;;;;;;;;;;;;;8.78;74.55;102114.47;5102652;28;20297;-85
2022/12/02 07:47:05;;;;;;;;;;;;;;;8.67;74.49;102111.00;5111901;28;19915;-87
2022/12/02 07:49:31;;;;;;;;;;;;;;;8.76;74.51;102114.38;5113571;28;19919;-89
2022/12/02 07:51:57;;;;;;;;;;;;;;;8.73;74.25;102113.19;5081933;28;19919;-86
2022/12/02 07:54:23;;;;;;;;;;;;;;;8.68;74.58;102124.94;5113759;28;19911;-86
2022/12/02 07:56:50;;;;;;;;;;;;;;;8.68;74.57;102133.66;5113489;28;19968;-88
2022/12/02 07:59:15;;;;;;;;;;;;;;;8.70;74.77;102128.56;5107013;28;19923;-89
2022/12/02 08:01:40;;;;;;;;;;;;;;;8.69;74.61;102126.75;5104939;28;20010;-86
2022/12/02 08:04:06;;;;;;;;;;;;;;;8.66;74.62;102136.94;5095946;28;20347;-88
2022/12/02 08:06:31;;;;;;;;;;;;;;;8.69;74.75;102129.34;5102909;28;20358;-89
2022/12/02 08:08:57;;;;;;;;;;;;;;;8.68;74.38;102131.06;5096828;28;19918;-88
2022/12/02 08:11:22;;;;;;;;;;;;;;;8.66;74.49;102126.50;5092725;28;19952;-88
2022/12/02 08:13:49;;;;;;;;;;;;;;;8.68;74.49;102128.44;5075845;28;20384;-87
2022/12/02 08:16:14;;;;;;;;;;;;;;;8.60;74.65;102126.91;5113929;28;19965;-88
2022/12/02 08:18:39;;;;;;;;;;;;;;;8.63;74.66;102129.75;5092664;28;19915;-89
2022/12/02 08:21:06;;;;;;;;;;;;;;;8.66;74.64;102119.59;5110421;28;19991;-89
2022/12/02 08:23:32;;;;;;;;;;;;;;;8.67;74.38;102121.41;5058354;28;19970;-87
2022/12/02 08:25:58;;;;;;;;;;;;;;;8.63;74.86;102124.53;5085717;28;19917;-87
2022/12/02 08:28:23;;;;;;;;;;;;;;;8.69;74.50;102127.66;5075757;28;20301;-88
2022/12/02 08:30:49;;;;;;;;;;;;;;;8.63;74.56;102119.31;5068708;28;20006;-87
2022/12/02 08:33:15;;;;;;;;;;;;;;;8.60;74.73;102118.19;5090127;28;19999;-88
2022/12/02 08:35:40;;;;;;;;;;;;;;;8.59;74.64;102116.34;5063092;28;20016;-88
2022/12/02 08:38:06;;;;;;;;;;;;;;;8.59;74.78;102116.34;5075592;28;20534;-88
2022/12/02 08:40:33;;;;;;;;;;;;;;;8.58;74.76;102117.16;5077660;28;19919;-88
2022/12/02 08:42:59;;;;;;;;;;;;;;;8.62;74.84;102116.63;5075447;28;19912;-88
2022/12/02 08:45:24;;;;;;;;;;;;;;;8.66;74.59;102129.13;5074727;28;19966;-87
2022/12/02 08:47:50;;;;;;;;;;;;;;;8.62;74.67;102127.94;5064974;28;20416;-87
2022/12/02 08:50:15;;;;;;;;;;;;;;;8.68;74.46;102119.75;5072919;28;19989;-87
2022/12/02 08:52:41;;;;;;;;;;;;;;;8.58;74.74;102118.03;5084143;28;19917;-87
2022/12/02 08:55:07;;;;;;;;;;;;;;;8.62;74.41;102124.44;5062660;28;19916;-86
2022/12/02 08:57:32;;;;;;;;;;;;;;;8.54;74.80;102121.19;5093306;28;19980;-87
2022/12/02 08:59:58;;;;;;;;;;;;;;;8.63;74.61;102128.84;5081026;28;19912;-87
2022/12/02 09:02:23;;;;;;;;;;;;;;;8.56;74.71;102114.41;5079081;28;19912;-87
2022/12/02 09:04:49;;;;;;;;;;;;;;;8.58;74.92;102119.75;5074869;28;19916;-88
2022/12/02 09:07:14;;;;;;;;;;;;;;;8.61;74.60;102118.28;5056434;28;19923;-88
2022/12/02 09:09:40;;;;;;;;;;;;;;;8.67;74.49;102116.19;5084314;28;20444;-89
2022/12/02 09:12:05;;;;;;;;;;;;;;;8.69;74.33;102121.53;5085500;28;20317;-88
2022/12/02 09:14:31;;;;;;;;;;;;;;;8.63;74.43;102121.03;5091414;28;20375;-89
2022/12/02 09:16:57;;;;;;;;;;;;;;;8.60;74.69;102121.69;5071567;28;20390;-89
2022/12/02 09:19:24;;;;;;;;;;;;;;;8.62;74.59;102120.13;5057179;28;20347;-89
2022/12/02 09:21:49;;;;;;;;;;;;;;;8.64;74.53;102126.38;5079284;28;19920;-89
2022/12/02 09:24:14;;;;;;;;;;;;;;;8.61;74.79;102126.09;5107027;28;19923;-89
2022/12/02 09:26:40;;;;;;;;;;;;;;;8.63;74.46;102128.84;5109835;28;19916;-87
2022/12/02 09:29:05;;;;;;;;;;;;;;;8.65;74.54;102122.97;5111623;28;20309;-86
2022/12/02 09:31:30;;;;;;;;;;;;;;;8.65;74.67;102127.28;5094475;28;19961;-87
2022/12/02 09:33:56;;;;;;;;;;;;;;;8.71;74.28;102127.78;5095088;28;20417;-90
2022/12/02 09:36:22;;;;;;;;;;;;;;;8.61;74.54;102125.19;5111688;28;20385;-90
2022/12/02 09:38:51;;;;;;;;;;;;;;;8.72;74.44;102114.91;5094546;28;19954;-90
2022/12/02 09:41:18;;;;;;;;;;;;;;;8.67;74.45;102118.81;5100475;28;19981;-91
2022/12/02 09:43:44;;;;;;;;;;;;;;;8.65;74.61;102120.38;5095515;28;19912;-91
2022/12/02 09:46:10;;;;;;;;;;;;;;;8.65;74.50;102122.06;5095027;28;20305;-90
2022/12/02 09:48:43;;;;;;;;;;;;;;;8.61;74.56;102127.81;5093696;28;20508;-90
2022/12/02 09:51:11;;;;;;;;;;;;;;;8.61;74.78;102127.81;5095194;28;19912;-90
2022/12/02 09:53:42;;;;;;;;;;;;;;;8.60;74.86;102131.19;5111698;28;19923;-90
2022/12/02 09:56:12;;;;;;;;;;;;;;;8.61;74.75;102126.09;5094869;28;19919;-88
2022/12/02 09:58:39;;;;;;;;;;;;;;;8.65;74.75;102124.66;5111915;28;19912;-89
2022/12/02 10:01:07;;;;;;;;;;;;;;;8.67;74.49;102128.31;5113480;28;19935;-89
2022/12/02 10:03:34;;;;;;;;;;;;;;;8.67;74.50;102126.63;5095442;28;20003;-89
2022/12/02 10:06:00;;;;;;;;;;;;;;;8.61;74.66;102122.59;5080203;28;19916;-89
2022/12/02 10:08:26;;;;;;;;;;;;;;;8.61;74.50;102123.50;5083440;28;19916;-89
2022/12/02 10:10:52;;;;;;;;;;;;;;;8.63;74.63;102132.34;5089034;28;20305;-88
2022/12/02 10:13:19;;;;;;;;;;;;;;;8.60;74.58;102126.91;5101291;28;19912;-88
2022/12/02 10:15:45;;;;;;;;;;;;;;;8.64;74.58;102123.78;5111256;28;19919;-88
2022/12/02 10:18:17;;;;;;;;;;;;;;;8.66;74.50;102126.50;5111303;28;19911;-88
2022/12/02 10:20:43;;;;;;;;;;;;;;;8.65;74.58;102124.66;5080880;28;19912;-89
2022/12/02 10:23:19;;;;;;;;;;;;;;;8.59;74.77;102125.06;5087359;28;19920;-88
2022/12/02 10:25:46;;;;;;;;;;;;;;;8.66;74.63;102123.91;5075330;28;19952;-88
2022/12/02 10:28:23;;;;;;;;;;;;;;;8.60;74.95;102132.09;5082197;28;20432;-89
2022/12/02 10:31:04;;;;;;;;;;;;;;;8.61;74.36;102125.19;5111971;28;19912;-88
2022/12/02 10:33:33;;;;;;;;;;;;;;;8.63;74.67;102121.03;5105434;28;19912;-88
2022/12/02 10:36:04;;;;;;;;;;;;;;;8.63;74.59;102121.03;5090873;28;19912;-88
2022/12/02 10:38:39;;;;;;;;;;;;;;;8.63;74.58;102123.63;5105236;28;19916;-89
2022/12/02 10:41:20;;;;;;;;;;;;;;;8.63;74.43;102126.25;5101735;28;19912;-89
2022/12/02 10:43:51;;;;;;;;;;;;;;;8.61;74.81;102127.81;5094354;28;19912;-89
2022/12/02 10:46:20;;;;;;;;;;;;;;;8.56;74.51;102120.50;5111041;28;20312;-89
2022/12/02 10:48:51;;;;;;;;;;;;;;;8.56;74.76;102122.22;5090331;28;19960;-88
2022/12/02 10:51:25;;;;;;;;;;;;;;;8.61;74.78;102128.69;5101248;28;20312;-89
2022/12/02 10:53:51;;;;;;;;;;;;;;;8.63;74.68;102127.13;5112109;28;20300;-88
2022/12/02 10:56:18;;;;;;;;;;;;;;;8.60;74.65;102128.59;5096371;28;19916;-88
2022/12/02 10:58:44;;;;;;;;;;;;;;;8.64;74.77;102115.06;5083190;28;20396;-89
2022/12/02 11:01:10;;;;;;;;;;;;;;;8.60;74.87;102120.78;5097942;28;19912;-89
2022/12/02 11:03:36;;;;;;;;;;;;;;;8.56;74.72;102114.41;5083868;28;19980;-89
2022/12/02 11:06:03;;;;;;;;;;;;;;;8.61;74.93;102120.00;5114440;28;20466;-89
2022/12/02 11:08:30;;;;;;;;;;;;;;;8.58;74.72;102120.66;5115013;28;19969;-89
2022/12/02 11:11:10;;;;;;;;;;;;;;;8.60;74.72;102116.47;5110719;28;19919;-88
2022/12/02 11:13:48;;;;;;;;;;;;;;;8.60;74.77;102116.47;5097435;28;20049;-87
2022/12/02 11:16:27;;;;;;;;;;;;;;;8.60;74.88;102115.56;5078980;28;20318;-88
2022/12/02 11:19:22;;;;;;;;;;;;;;;8.62;74.73;102117.53;5107429;28;19920;-89
2022/12/02 11:21:47;;;;;;;;;;;;;;;8.59;74.83;102113.75;5086134;28;19928;-89
2022/12/02 11:24:20;;;;;;;;;;;;;;;8.61;74.91;102112.19;5097946;28;20321;-89
2022/12/02 11:30:08;;;;;;;;;;;;;;;8.60;74.81;102113.88;5111767;28;19919;-91
2022/12/02 11:32:38;;;;;;;;;;;;;;;8.60;74.77;102113.88;5103244;28;19970;-91
2022/12/02 11:35:21;;;;;;;;;;;;;;;8.62;74.74;102120.13;5103140;28;20015;-90
2022/12/02 11:37:51;;;;;;;;;;;;;;;8.63;74.76;102124.53;5103145;28;19920;-89
2022/12/02 11:40:23;;;;;;;;;;;;;;;8.61;74.74;102135.59;5087263;28;19967;-91
2022/12/02 11:42:53;;;;;;;;;;;;;;;8.63;75.16;102136.66;5106688;28;20388;-94
2022/12/02 11:45:39;;;;;;;;;;;;;;;8.64;74.99;102142.00;5102732;28;20301;-89
2022/12/02 11:48:13;;;;;;;;;;;;;;;8.61;75.16;102138.22;5102996;28;20006;-90
2022/12/02 11:50:46;;;;;;;;;;;;;;;8.63;75.46;102142.75;5106205;28;19915;-89
2022/12/02 11:53:16;;;;;;;;;;;;;;;8.64;75.11;102149.81;5106937;28;19916;-89
2022/12/02 11:55:46;;;;;;;;;;;;;;;8.63;75.67;102147.97;5090325;28;20313;-88
2022/12/02 11:58:15;;;;;;;;;;;;;;;8.63;75.53;102152.28;5110555;28;20049;-88
2022/12/02 12:00:52;;;;;;;;;;;;;;;8.64;75.34;102151.50;5109951;28;19912;-88
2022/12/02 12:03:18;;;;;;;;;;;;;;;8.67;75.37;102157.88;5103859;28;19923;-88
2022/12/02 12:06:22;;;;;;;;;;;;;;;8.66;75.47;102155.16;5097447;28;19919;-87
2022/12/02 12:08:57;;;;;;;;;;;;;;;8.70;75.39;102157.19;5067256;28;19916;-87
2022/12/02 12:11:31;;;;;;;;;;;;;;;8.71;75.64;102156.44;5075752;28;19932;-87
2022/12/02 12:14:02;;;;;;;;;;;;;;;8.70;75.21;102152.00;5113566;27;19924;-89
2022/12/02 12:16:31;;;;;;;;;;;;;;;8.73;75.57;102150.56;5078871;28;20441;-89
2022/12/02 12:18:58;;;;;;;;;;;;;;;8.74;75.68;102154.06;5112644;28;19915;-88
2022/12/02 12:21:30;;;;;;;;;;;;;;;8.74;75.27;102142.00;5109860;28;19968;-88
2022/12/02 12:24:21;;;;;;;;;;;;;;;8.75;75.38;102146.41;5113775;28;19916;-90
2022/12/02 12:26:47;;;;;;;;;;;;;;;8.75;75.61;102142.88;5093529;28;20550;-88
2022/12/02 12:29:13;;;;;;;;;;;;;;;8.75;75.78;102135.06;5092592;28;20010;-89
2022/12/02 12:31:39;;;;;;;;;;;;;;;8.76;75.71;102135.22;5094311;28;19961;-88
2022/12/02 12:34:06;;;;;;;;;;;;;;;8.79;75.77;102134.56;5094744;28;19958;-89
2022/12/02 12:36:31;;;;;;;;;;;;;;;8.82;76.19;102141.69;5080807;28;20349;-90
2022/12/02 12:38:57;;;;;;;;;;;;;;;8.82;75.90;102142.59;5092899;28;19955;-89
2022/12/02 12:41:22;;;;;;;;;;;;;;;8.81;76.27;102146.00;5085960;28;19923;-88
2022/12/02 12:43:49;;;;;;;;;;;;;;;8.82;76.60;102147.81;5068109;28;19916;-89
2022/12/02 12:46:15;;;;;;;;;;;;;;;8.86;76.53;102149.91;5066136;28;20015;-88
2022/12/02 12:48:41;;;;;;;;;;;;;;;8.86;76.62;102149.91;5092622;28;19971;-89
2022/12/02 12:51:06;;;;;;;;;;;;;;;8.87;76.90;102156.94;5086923;28;19916;-90
2022/12/02 12:53:32;;;;;;;;;;;;;;;8.90;77.06;102157.19;5077195;28;20270;-91
2022/12/02 12:55:57;;;;;;;;;;;;;;;8.90;77.25;102159.78;5095703;28;19934;-90
2022/12/02 12:58:22;;;;;;;;;;;;;;;8.94;77.60;102160.97;5070607;28;20551;-88
2022/12/02 13:00:49;;;;;;;;;;;;;;;8.94;77.57;102155.75;5084859;28;20336;-90
2022/12/02 13:03:14;;;;;;;;;;;;;;;8.95;77.67;102160.16;5067315;28;19916;-90
2022/12/02 13:05:41;;;;;;;;;;;;;;;8.94;77.83;102163.56;5077658;28;19981;-89
2022/12/02 13:08:09;;;;;;;;;;;;;;;8.98;77.99;102162.13;5075566;28;19916;-90
2022/12/02 13:10:37;;;;;;;;;;;;;;;8.98;77.80;102176.06;5078045;28;19981;-91
2022/12/02 13:13:08;;;;;;;;;;;;;;;9.00;78.15;102189.22;5072714;28;19912;-91
2022/12/02 13:15:33;;;;;;;;;;;;;;;9.00;77.71;102189.22;5093393;28;20015;-88
2022/12/02 13:18:04;;;;;;;;;;;;;;;8.99;78.10;102193.50;5091028;28;19947;-89
2022/12/02 13:20:29;;;;;;;;;;;;;;;9.01;78.41;102196.25;5094815;28;19912;-91
2022/12/02 13:22:57;;;;;;;;;;;;;;;9.02;78.11;102204.19;5100980;28;19920;-89
2022/12/02 13:25:22;;;;;;;;;;;;;;;9.04;78.11;102201.69;5097622;28;19923;-91
2022/12/02 13:27:52;;;;;;;;;;;;;;;9.05;78.06;102213.97;5104592;28;19912;-92
2022/12/02 13:30:36;;;;;;;;;;;;;;;9.07;78.38;102217.59;5092139;28;19912;-89
2022/12/02 13:33:05;;;;;;;;;;;;;;;9.09;78.23;102223.84;5112139;28;19919;-89
2022/12/02 13:35:42;;;;;;;;;;;;;;;9.10;78.43;102223.06;5092717;28;19919;-91
2022/12/02 13:38:09;;;;;;;;;;;;;;;9.11;78.27;102230.09;5089486;28;19923;-91
2022/12/02 13:40:48;;;;;;;;;;;;;;;9.11;78.25;102224.91;5089164;28;19969;-90
2022/12/02 13:43:20;;;;;;;;;;;;;;;9.12;78.26;102231.91;5104111;28;20012;-91
2022/12/02 13:45:55;;;;;;;;;;;;;;;9.11;78.35;102232.72;5081886;28;19916;-91
2022/12/02 13:48:24;;;;;;;;;;;;;;;9.11;78.66;102233.63;5095284;28;20002;-91
2022/12/02 13:50:53;;;;;;;;;;;;;;;9.19;78.40;102234.28;5078424;28;19915;-91
2022/12/02 13:53:22;;;;;;;;;;;;;;;9.15;78.25;102247.81;5075205;28;19969;-90
2022/12/02 13:56:01;;;;;;;;;;;;;;;9.14;78.58;102252.13;5080994;28;19916;-90
2022/12/02 13:58:27;;;;;;;;;;;;;;;9.16;78.61;102250.56;5095337;28;19996;-91
2022/12/02 14:01:06;;;;;;;;;;;;;;;9.17;78.30;102246.25;5077600;28;20354;-91
2022/12/02 14:03:33;;;;;;;;;;;;;;;9.17;79.08;102247.16;5092307;28;19912;-92
2022/12/02 14:06:25;;;;;;;;;;;;;;;9.14;78.63;102244.31;5094651;28;19916;-92
2022/12/02 14:09:14;;;;;;;;;;;;;;;9.07;78.62;102228.94;5111160;28;19912;-91
2022/12/02 14:14:43;;;;;;;;;;;;;;;9.19;78.86;102252.50;5100637;28;19961;-94
2022/12/02 14:17:09;;;;;;;;;;;;;;;9.21;78.57;102255.22;5092816;28;19916;-94
2022/12/02 14:19:55;;;;;;;;;;;;;;;9.19;78.69;102247.31;5078384;28;19918;-95
2022/12/02 14:22:28;;;;;;;;;;;;;;;9.20;78.79;102263.84;5100611;28;19928;-92
2022/12/02 14:25:04;;;;;;;;;;;;;;;9.21;78.80;102263.03;5044082;28;19920;-93
2022/12/02 14:30:44;;;;;;;;;;;;;;;9.25;78.59;102258.25;5094034;28;19972;-93
2022/12/02 14:33:29;;;;;;;;;;;;;;;9.21;79.08;102258.78;5055215;28;19913;-94
2022/12/02 14:35:55;;;;;;;;;;;;;;;9.26;79.15;102260.03;5057505;28;19916;-94
2022/12/02 14:41:23;;;;;;;;;;;;;;;9.28;79.04;102262.78;5093324;28;19962;-91
2022/12/02 14:43:51;;;;;;;;;;;;;;;9.20;78.91;102256.94;5073464;28;20010;-92
2022/12/02 14:46:29;;;;;;;;;;;;;;;9.24;79.09;102265.94;5060113;28;19931;-91
2022/12/02 14:49:15;;;;;;;;;;;;;;;9.34;80.04;102264.22;5057419;28;19917;-90
2022/12/02 14:51:41;;;;;;;;;;;;;;;9.28;79.31;102270.63;5079795;28;19916;-88
2022/12/02 14:54:07;;;;;;;;;;;;;;;9.23;79.95;102266.69;5086036;28;20545;-89
2022/12/02 14:57:04;;;;;;;;;;;;;;;9.24;79.46;102273.75;5052638;28;19959;-90
2022/12/02 14:59:39;;;;;;;;;;;;;;;9.23;79.32;102272.84;5063884;28;19916;-89